• location
  • image
mod_vvisit_counterThis week4204
mod_vvisit_counterLast week4465
mod_vvisit_counterThis month10808
mod_vvisit_counterLast month23683
mod_vvisit_counterAll days865132

We have: 25 guests, 1 bots online
Your IP:
Today: Mar 18, 2018
Airport / News / July 2016

July 2016

Cooperation with the US Company “Atlas Air Worldwide Holdings”

In order to increase the cargo flow of goods through International Siauliai Military Airport municipal company Siauliu Oro Uostas attracts new air carriers. One of the examples is the US air cargo company “Atlas Air Worldwide Holdings”,  which services 297 air cargo flight routes in 103 countries on six continents.

We are pleased that the mentioned US company more frequently sends cargo aircraft to International Siauliai Military Airport  exploiting the possibilities of the Airport for exports and imports  of common goods, live animals, heavy, perishable goods.

Municipal company Siauliu Oro Uostas confidently pursues the aim – to form a long-term cargo service platform at International Siauliai Military Airport in cooperation with the partners of the project "New Baltic Air Cargo Gate".

Atlas Air website


Sunday, 18 March 2018

Aviation Weather Forecast

[source: ADDS]
EYSA 180920Z 29008KT 250V330 CAVOK M02/M12 Q1025 R32R/19//95 R32L/19//95 BLU NOSIG =
TAF EYSA 180801Z 1809/1818 30008KT CAVOK =
SR / SS: 04:34 / 16:37 UTC (EYSA 2018-03-18)


Who's Online

We have 26 guests online

tic logo en